KADSKTKI

Guest
Details From KADS - ADDISON
To KTKI - COLLIN CO RGNL AT MC KINNEY
Flight Number -
Tags decoded
Created
Modified
Stats Distance 18 nm / 33 km
Max Altitude 0 ft / 0 m
Waypoints 2
Social Downloads 3
Likes 0
Share VATSIM

Download

Looking for another format? Having issues loading an existing format? Contact us
Advertisement - Login to hide

Notes

Requested: KADS TO KTKI

Route

KADS KTKI

ID Type Via Altitude Latitude Longitude Leg Dist Tot Dist Heading (true) Name
O KADS APT - 0 ft / 0 m 32.96856˚ -96.83645˚ - 0 nm - ADDISON
O KTKI APT - 0 ft / 0 m 33.17749˚ -96.58961˚ 17 nm 17 nm 45° / 45° COLLIN CO RGNL AT MC KINNEY

Altitude Profile

Advertisement - Login to hide

KADS

Details ICAO KADS (ADS)
Name ADDISON
Region United States
Timezone America/Chicago (UTC-6.0)
Stats Elevation 644 ft / 196 m (AMSL)
Location 32.968558° -96.836454°
Runways 1
Magnetic Variation 3.311° E

METAR

KADS 171847Z 18009KT 7SM OVC008 09/07 A3007

Decode

TAF

Not found

Departure Runways

ID Width Length Bearing (true) Bearing (mag) Surface Threshold Offset Overrun Length
15 100 ft / 30 m 7,218 ft / 2,200 m 159.87° 156.56° Asphalt 979 ft / 298 m 0 ft / 0 m
33 100 ft / 30 m 7,218 ft / 2,200 m 339.87° 336.56° Asphalt 771 ft / 235 m 0 ft / 0 m

KTKI

Details ICAO KTKI (TKI)
Name COLLIN CO RGNL AT MC KINNEY
Region United States
Timezone America/Chicago (UTC-6.0)
Stats Elevation 584 ft / 178 m (AMSL)
Location 33.177492° -96.589608°
Runways 2
Magnetic Variation 3.158° E

METAR

KTKI 171900Z 18008KT 10SM OVC011 09/08 A3006 RMK AO2 T00940078

Decode

TAF

Not found

Destination Runways

ID Width Length Bearing (true) Bearing (mag) Surface Threshold Offset Overrun Length
17 100 ft / 30 m 7,020 ft / 2,140 m 182.10° 178.94° Asphalt 0 ft / 0 m 0 ft / 0 m
18 150 ft / 46 m 7,009 ft / 2,136 m 182.10° 178.94° Asphalt 0 ft / 0 m 0 ft / 0 m
35 100 ft / 30 m 7,020 ft / 2,140 m 2.10° 358.94° Asphalt 0 ft / 0 m 0 ft / 0 m
36 150 ft / 46 m 7,009 ft / 2,136 m 2.10° 358.94° Asphalt 0 ft / 0 m 0 ft / 0 m

Approach Navaids

Runway Type Ident Frequency Range Bearing (true) Bearing (mag) Slope Elevation
17 Localiser IEFE 109.35 MHz 18 nm / 33 km 182.10° 178.95° - 585 ft / 178 m (AMSL)
17 Glidescope IEFE 109.35 MHz 10 nm / 19 km 182.10° 178.95° 3.00° 585 ft / 178 m (AMSL)
17 DME IEFE 109.35 MHz 18 nm / 33 km - - - 585 ft / 178 m (AMSL)
18 Localiser IEFE 109.35 MHz 18 nm / 33 km 182.10° 178.95° - 585 ft / 178 m (AMSL)
18 Glidescope IEFE 109.35 MHz 10 nm / 19 km 182.10° 178.95° 3.00° 585 ft / 178 m (AMSL)
18 DME IEFE 109.35 MHz 18 nm / 33 km - - - 585 ft / 178 m (AMSL)